Cora, Missouri
Current Conditions -  °F | °C
As of 4:55 PM on Friday 28 Nov 2014 (Local Time) from KIRK Reporting Station
Clear Clear  
Wind Chill: 36°   Ceiling: Unl
Heat Index: 41°   Visibility: 10mi
Dew Point: 33°   Wind: 7mph
Humidity: 73%   Direction: 150°SSE
Pressure: 29.82"   Gusts: NA
Location:  40.1663°N, 93.1629°W
Report Text: KIRK 282255Z AUTO 15006KT 10SM CLR 05/01 A2982 RMK AO2 SLP109 T00500006
Loading
Personal Weather Stations






























Interactive Weather Map New forecast layout! Learn more

10-Day Weather Forecast

Advertisements
Track Severe Weather on mobile